sensor_id;sensor_type;location;lat;lon;timestamp;P1;durP1;ratioP1;P2;durP2;ratioP2
41057;SDS011;66768;48.884;2.258;2023-05-15T00:01:33;0.30;;;0.30;;
41057;SDS011;66768;48.884;2.258;2023-05-15T00:04:00;0.40;;;0.40;;
41057;SDS011;66768;48.884;2.258;2023-05-15T00:06:27;0.30;;;0.30;;
41057;SDS011;66768;48.884;2.258;2023-05-15T00:08:53;0.50;;;0.50;;
41057;SDS011;66768;48.884;2.258;2023-05-15T00:11:22;0.30;;;0.30;;
41057;SDS011;66768;48.884;2.258;2023-05-15T00:13:51;0.30;;;0.30;;
41057;SDS011;66768;48.884;2.258;2023-05-15T00:16:18;0.30;;;0.30;;
41057;SDS011;66768;48.884;2.258;2023-05-15T00:18:45;0.40;;;0.40;;
41057;SDS011;66768;48.884;2.258;2023-05-15T00:21:12;0.35;;;0.35;;
41057;SDS011;66768;48.884;2.258;2023-05-15T00:23:39;0.30;;;0.30;;
41057;SDS011;66768;48.884;2.258;2023-05-15T00:26:06;0.32;;;0.32;;
41057;SDS011;66768;48.884;2.258;2023-05-15T00:28:34;0.30;;;0.30;;
41057;SDS011;66768;48.884;2.258;2023-05-15T00:31:01;0.30;;;0.30;;
41057;SDS011;66768;48.884;2.258;2023-05-15T00:33:27;0.30;;;0.30;;
41057;SDS011;66768;48.884;2.258;2023-05-15T00:35:55;0.30;;;0.30;;
41057;SDS011;66768;48.884;2.258;2023-05-15T00:38:22;0.30;;;0.30;;
41057;SDS011;66768;48.884;2.258;2023-05-15T00:40:48;0.40;;;0.40;;
41057;SDS011;66768;48.884;2.258;2023-05-15T00:43:16;0.40;;;0.40;;
41057;SDS011;66768;48.884;2.258;2023-05-15T00:45:45;0.40;;;0.40;;
41057;SDS011;66768;48.884;2.258;2023-05-15T00:48:13;0.40;;;0.40;;
41057;SDS011;66768;48.884;2.258;2023-05-15T00:50:40;0.40;;;0.40;;
41057;SDS011;66768;48.884;2.258;2023-05-15T00:53:08;0.30;;;0.30;;
41057;SDS011;66768;48.884;2.258;2023-05-15T00:55:36;0.40;;;0.40;;
41057;SDS011;66768;48.884;2.258;2023-05-15T00:58:03;0.40;;;0.40;;
41057;SDS011;66768;48.884;2.258;2023-05-15T01:00:31;0.40;;;0.40;;
41057;SDS011;66768;48.884;2.258;2023-05-15T01:03:00;0.30;;;0.30;;
41057;SDS011;66768;48.884;2.258;2023-05-15T01:05:27;0.40;;;0.40;;
41057;SDS011;66768;48.884;2.258;2023-05-15T01:07:55;0.40;;;0.40;;
41057;SDS011;66768;48.884;2.258;2023-05-15T01:10:31;0.40;;;0.40;;
41057;SDS011;66768;48.884;2.258;2023-05-15T01:12:59;0.30;;;0.30;;
41057;SDS011;66768;48.884;2.258;2023-05-15T01:15:27;0.30;;;0.30;;
41057;SDS011;66768;48.884;2.258;2023-05-15T01:17:54;0.43;;;0.43;;
41057;SDS011;66768;48.884;2.258;2023-05-15T01:20:23;0.40;;;0.40;;
41057;SDS011;66768;48.884;2.258;2023-05-15T01:23:05;0.30;;;0.30;;
41057;SDS011;66768;48.884;2.258;2023-05-15T01:28:44;0.32;;;0.32;;
41057;SDS011;66768;48.884;2.258;2023-05-15T01:31:15;0.40;;;0.40;;
41057;SDS011;66768;48.884;2.258;2023-05-15T01:33:49;0.32;;;0.32;;
41057;SDS011;66768;48.884;2.258;2023-05-15T01:36:23;0.30;;;0.30;;
41057;SDS011;66768;48.884;2.258;2023-05-15T01:38:56;0.35;;;0.35;;
41057;SDS011;66768;48.884;2.258;2023-05-15T01:41:27;0.30;;;0.30;;
41057;SDS011;66768;48.884;2.258;2023-05-15T01:43:58;0.40;;;0.40;;
41057;SDS011;66768;48.884;2.258;2023-05-15T01:46:30;0.40;;;0.40;;
41057;SDS011;66768;48.884;2.258;2023-05-15T01:48:57;0.35;;;0.35;;
41057;SDS011;66768;48.884;2.258;2023-05-15T01:51:26;0.43;;;0.43;;
41057;SDS011;66768;48.884;2.258;2023-05-15T01:53:55;0.40;;;0.40;;
41057;SDS011;66768;48.884;2.258;2023-05-15T01:56:23;0.30;;;0.30;;
41057;SDS011;66768;48.884;2.258;2023-05-15T01:58:52;0.30;;;0.30;;
41057;SDS011;66768;48.884;2.258;2023-05-15T02:01:21;0.40;;;0.40;;
41057;SDS011;66768;48.884;2.258;2023-05-15T02:03:49;0.40;;;0.40;;
41057;SDS011;66768;48.884;2.258;2023-05-15T02:06:17;0.40;;;0.40;;
41057;SDS011;66768;48.884;2.258;2023-05-15T02:08:44;0.47;;;0.47;;
41057;SDS011;66768;48.884;2.258;2023-05-15T02:11:13;0.40;;;0.40;;
41057;SDS011;66768;48.884;2.258;2023-05-15T02:13:40;0.43;;;0.43;;
41057;SDS011;66768;48.884;2.258;2023-05-15T02:16:07;0.40;;;0.40;;
41057;SDS011;66768;48.884;2.258;2023-05-15T02:18:36;0.50;;;0.50;;
41057;SDS011;66768;48.884;2.258;2023-05-15T02:21:02;0.35;;;0.35;;
41057;SDS011;66768;48.884;2.258;2023-05-15T02:23:29;0.40;;;0.40;;
41057;SDS011;66768;48.884;2.258;2023-05-15T02:26:02;0.30;;;0.30;;
41057;SDS011;66768;48.884;2.258;2023-05-15T02:28:37;0.45;;;0.45;;
41057;SDS011;66768;48.884;2.258;2023-05-15T02:31:13;0.40;;;0.40;;
41057;SDS011;66768;48.884;2.258;2023-05-15T02:33:49;0.40;;;0.40;;
41057;SDS011;66768;48.884;2.258;2023-05-15T02:36:24;0.40;;;0.40;;
41057;SDS011;66768;48.884;2.258;2023-05-15T02:38:56;0.40;;;0.40;;
41057;SDS011;66768;48.884;2.258;2023-05-15T02:41:24;0.22;;;0.22;;
41057;SDS011;66768;48.884;2.258;2023-05-15T02:43:52;0.40;;;0.40;;
41057;SDS011;66768;48.884;2.258;2023-05-15T02:46:21;0.38;;;0.38;;
41057;SDS011;66768;48.884;2.258;2023-05-15T02:48:50;0.40;;;0.40;;
41057;SDS011;66768;48.884;2.258;2023-05-15T02:51:18;0.40;;;0.40;;
41057;SDS011;66768;48.884;2.258;2023-05-15T02:53:46;0.30;;;0.30;;
41057;SDS011;66768;48.884;2.258;2023-05-15T02:56:14;0.30;;;0.30;;
41057;SDS011;66768;48.884;2.258;2023-05-15T02:58:41;0.40;;;0.40;;
41057;SDS011;66768;48.884;2.258;2023-05-15T03:01:07;0.50;;;0.50;;
41057;SDS011;66768;48.884;2.258;2023-05-15T03:03:34;0.45;;;0.45;;
41057;SDS011;66768;48.884;2.258;2023-05-15T03:06:03;0.50;;;0.50;;
41057;SDS011;66768;48.884;2.258;2023-05-15T03:08:30;0.40;;;0.40;;
41057;SDS011;66768;48.884;2.258;2023-05-15T03:10:57;0.50;;;0.50;;
41057;SDS011;66768;48.884;2.258;2023-05-15T03:13:23;0.50;;;0.50;;
41057;SDS011;66768;48.884;2.258;2023-05-15T03:15:50;0.35;;;0.35;;
41057;SDS011;66768;48.884;2.258;2023-05-15T03:18:17;0.50;;;0.50;;
41057;SDS011;66768;48.884;2.258;2023-05-15T03:23:14;0.43;;;0.43;;
41057;SDS011;66768;48.884;2.258;2023-05-15T03:25:41;0.50;;;0.50;;
41057;SDS011;66768;48.884;2.258;2023-05-15T03:28:07;0.55;;;0.55;;
41057;SDS011;66768;48.884;2.258;2023-05-15T03:30:34;0.43;;;0.43;;
41057;SDS011;66768;48.884;2.258;2023-05-15T03:33:01;0.43;;;0.43;;
41057;SDS011;66768;48.884;2.258;2023-05-15T03:35:28;0.57;;;0.57;;
41057;SDS011;66768;48.884;2.258;2023-05-15T03:37:56;0.30;;;0.30;;
41057;SDS011;66768;48.884;2.258;2023-05-15T03:40:24;0.40;;;0.40;;
41057;SDS011;66768;48.884;2.258;2023-05-15T03:42:51;0.40;;;0.40;;
41057;SDS011;66768;48.884;2.258;2023-05-15T03:45:18;0.40;;;0.40;;
41057;SDS011;66768;48.884;2.258;2023-05-15T03:47:45;0.40;;;0.40;;
41057;SDS011;66768;48.884;2.258;2023-05-15T03:50:12;0.25;;;0.25;;
41057;SDS011;66768;48.884;2.258;2023-05-15T03:52:39;0.40;;;0.40;;
41057;SDS011;66768;48.884;2.258;2023-05-15T03:55:06;0.40;;;0.40;;
41057;SDS011;66768;48.884;2.258;2023-05-15T03:57:35;0.40;;;0.40;;
41057;SDS011;66768;48.884;2.258;2023-05-15T04:00:02;0.30;;;0.30;;
41057;SDS011;66768;48.884;2.258;2023-05-15T04:02:33;0.40;;;0.40;;
41057;SDS011;66768;48.884;2.258;2023-05-15T04:05:01;0.43;;;0.43;;
41057;SDS011;66768;48.884;2.258;2023-05-15T04:07:28;0.40;;;0.40;;
41057;SDS011;66768;48.884;2.258;2023-05-15T04:09:55;0.40;;;0.40;;
41057;SDS011;66768;48.884;2.258;2023-05-15T04:12:25;0.40;;;0.40;;
41057;SDS011;66768;48.884;2.258;2023-05-15T04:14:55;0.30;;;0.30;;
41057;SDS011;66768;48.884;2.258;2023-05-15T04:17:24;0.50;;;0.50;;
41057;SDS011;66768;48.884;2.258;2023-05-15T04:19:51;0.40;;;0.40;;
41057;SDS011;66768;48.884;2.258;2023-05-15T04:22:18;0.40;;;0.40;;
41057;SDS011;66768;48.884;2.258;2023-05-15T04:24:44;0.40;;;0.40;;
41057;SDS011;66768;48.884;2.258;2023-05-15T04:27:11;0.43;;;0.43;;
41057;SDS011;66768;48.884;2.258;2023-05-15T04:29:38;0.40;;;0.40;;
41057;SDS011;66768;48.884;2.258;2023-05-15T04:32:06;0.40;;;0.40;;
41057;SDS011;66768;48.884;2.258;2023-05-15T04:34:33;0.50;;;0.50;;
41057;SDS011;66768;48.884;2.258;2023-05-15T04:37:00;0.50;;;0.50;;
41057;SDS011;66768;48.884;2.258;2023-05-15T04:39:27;0.50;;;0.50;;
41057;SDS011;66768;48.884;2.258;2023-05-15T04:41:54;0.50;;;0.50;;
41057;SDS011;66768;48.884;2.258;2023-05-15T04:44:21;0.40;;;0.40;;
41057;SDS011;66768;48.884;2.258;2023-05-15T04:46:48;0.50;;;0.50;;
41057;SDS011;66768;48.884;2.258;2023-05-15T04:49:16;0.30;;;0.30;;
41057;SDS011;66768;48.884;2.258;2023-05-15T04:51:43;0.30;;;0.30;;
41057;SDS011;66768;48.884;2.258;2023-05-15T04:54:10;0.40;;;0.40;;
41057;SDS011;66768;48.884;2.258;2023-05-15T04:56:36;0.50;;;0.50;;
41057;SDS011;66768;48.884;2.258;2023-05-15T04:59:03;0.40;;;0.40;;
41057;SDS011;66768;48.884;2.258;2023-05-15T05:01:30;0.40;;;0.40;;
41057;SDS011;66768;48.884;2.258;2023-05-15T05:03:57;0.40;;;0.40;;
41057;SDS011;66768;48.884;2.258;2023-05-15T05:06:25;0.40;;;0.40;;
41057;SDS011;66768;48.884;2.258;2023-05-15T05:08:52;0.30;;;0.30;;
41057;SDS011;66768;48.884;2.258;2023-05-15T05:11:19;0.52;;;0.52;;
41057;SDS011;66768;48.884;2.258;2023-05-15T05:13:46;0.47;;;0.47;;
41057;SDS011;66768;48.884;2.258;2023-05-15T05:16:13;0.40;;;0.40;;
41057;SDS011;66768;48.884;2.258;2023-05-15T05:18:40;0.40;;;0.40;;
41057;SDS011;66768;48.884;2.258;2023-05-15T05:21:07;0.47;;;0.47;;
41057;SDS011;66768;48.884;2.258;2023-05-15T05:23:36;0.40;;;0.40;;
41057;SDS011;66768;48.884;2.258;2023-05-15T05:26:03;0.38;;;0.38;;
41057;SDS011;66768;48.884;2.258;2023-05-15T05:28:29;0.50;;;0.50;;
41057;SDS011;66768;48.884;2.258;2023-05-15T05:30:56;0.38;;;0.38;;
41057;SDS011;66768;48.884;2.258;2023-05-15T05:33:23;0.40;;;0.40;;
41057;SDS011;66768;48.884;2.258;2023-05-15T05:35:50;0.40;;;0.40;;
41057;SDS011;66768;48.884;2.258;2023-05-15T05:38:17;0.50;;;0.50;;
41057;SDS011;66768;48.884;2.258;2023-05-15T05:40:45;0.40;;;0.40;;
41057;SDS011;66768;48.884;2.258;2023-05-15T05:43:12;0.40;;;0.40;;
41057;SDS011;66768;48.884;2.258;2023-05-15T05:45:39;0.52;;;0.52;;
41057;SDS011;66768;48.884;2.258;2023-05-15T05:48:06;0.50;;;0.50;;
41057;SDS011;66768;48.884;2.258;2023-05-15T05:50:33;0.30;;;0.30;;
41057;SDS011;66768;48.884;2.258;2023-05-15T05:53:00;0.40;;;0.40;;
41057;SDS011;66768;48.884;2.258;2023-05-15T05:55:26;0.47;;;0.47;;
41057;SDS011;66768;48.884;2.258;2023-05-15T05:57:55;0.40;;;0.40;;
41057;SDS011;66768;48.884;2.258;2023-05-15T06:00:23;0.40;;;0.40;;
41057;SDS011;66768;48.884;2.258;2023-05-15T06:02:51;0.40;;;0.40;;
41057;SDS011;66768;48.884;2.258;2023-05-15T06:05:21;0.30;;;0.30;;
41057;SDS011;66768;48.884;2.258;2023-05-15T06:07:48;0.50;;;0.50;;
41057;SDS011;66768;48.884;2.258;2023-05-15T06:10:15;0.40;;;0.40;;
41057;SDS011;66768;48.884;2.258;2023-05-15T06:12:42;0.40;;;0.40;;
41057;SDS011;66768;48.884;2.258;2023-05-15T06:15:11;0.40;;;0.40;;
41057;SDS011;66768;48.884;2.258;2023-05-15T06:17:38;0.40;;;0.40;;
41057;SDS011;66768;48.884;2.258;2023-05-15T06:20:05;0.35;;;0.35;;
41057;SDS011;66768;48.884;2.258;2023-05-15T06:22:34;0.35;;;0.35;;
41057;SDS011;66768;48.884;2.258;2023-05-15T06:25:01;0.45;;;0.45;;
41057;SDS011;66768;48.884;2.258;2023-05-15T06:27:29;0.43;;;0.43;;
41057;SDS011;66768;48.884;2.258;2023-05-15T06:29:56;0.40;;;0.40;;
41057;SDS011;66768;48.884;2.258;2023-05-15T06:32:24;0.32;;;0.32;;
41057;SDS011;66768;48.884;2.258;2023-05-15T06:34:51;0.30;;;0.30;;
41057;SDS011;66768;48.884;2.258;2023-05-15T06:37:18;0.40;;;0.40;;
41057;SDS011;66768;48.884;2.258;2023-05-15T06:39:45;0.40;;;0.40;;
41057;SDS011;66768;48.884;2.258;2023-05-15T06:42:12;0.40;;;0.40;;
41057;SDS011;66768;48.884;2.258;2023-05-15T06:44:39;0.32;;;0.32;;
41057;SDS011;66768;48.884;2.258;2023-05-15T06:47:06;0.43;;;0.43;;
41057;SDS011;66768;48.884;2.258;2023-05-15T06:49:34;0.50;;;0.50;;
41057;SDS011;66768;48.884;2.258;2023-05-15T06:52:01;0.60;;;0.60;;
41057;SDS011;66768;48.884;2.258;2023-05-15T06:54:28;0.40;;;0.40;;
41057;SDS011;66768;48.884;2.258;2023-05-15T06:56:54;0.40;;;0.40;;
41057;SDS011;66768;48.884;2.258;2023-05-15T06:59:21;0.32;;;0.32;;
41057;SDS011;66768;48.884;2.258;2023-05-15T07:01:48;0.30;;;0.30;;
41057;SDS011;66768;48.884;2.258;2023-05-15T07:04:15;0.40;;;0.40;;
41057;SDS011;66768;48.884;2.258;2023-05-15T07:06:43;0.40;;;0.40;;
41057;SDS011;66768;48.884;2.258;2023-05-15T07:09:11;0.30;;;0.30;;
41057;SDS011;66768;48.884;2.258;2023-05-15T07:11:38;0.32;;;0.32;;
41057;SDS011;66768;48.884;2.258;2023-05-15T07:14:06;0.40;;;0.40;;
41057;SDS011;66768;48.884;2.258;2023-05-15T07:16:33;0.30;;;0.30;;
41057;SDS011;66768;48.884;2.258;2023-05-15T07:18:59;0.32;;;0.32;;
41057;SDS011;66768;48.884;2.258;2023-05-15T07:21:26;0.30;;;0.30;;
41057;SDS011;66768;48.884;2.258;2023-05-15T07:23:54;0.38;;;0.38;;
41057;SDS011;66768;48.884;2.258;2023-05-15T07:26:21;0.40;;;0.40;;
41057;SDS011;66768;48.884;2.258;2023-05-15T07:28:48;0.30;;;0.30;;
41057;SDS011;66768;48.884;2.258;2023-05-15T07:31:15;0.50;;;0.50;;
41057;SDS011;66768;48.884;2.258;2023-05-15T07:33:42;0.28;;;0.28;;
41057;SDS011;66768;48.884;2.258;2023-05-15T07:36:08;0.30;;;0.30;;
41057;SDS011;66768;48.884;2.258;2023-05-15T07:38:35;0.40;;;0.40;;
41057;SDS011;66768;48.884;2.258;2023-05-15T07:41:03;0.35;;;0.35;;
41057;SDS011;66768;48.884;2.258;2023-05-15T07:43:30;0.30;;;0.30;;
41057;SDS011;66768;48.884;2.258;2023-05-15T07:45:57;0.50;;;0.50;;
41057;SDS011;66768;48.884;2.258;2023-05-15T07:48:24;0.40;;;0.40;;
41057;SDS011;66768;48.884;2.258;2023-05-15T07:50:51;0.25;;;0.25;;
41057;SDS011;66768;48.884;2.258;2023-05-15T07:53:19;0.40;;;0.40;;
41057;SDS011;66768;48.884;2.258;2023-05-15T07:55:46;0.30;;;0.30;;
41057;SDS011;66768;48.884;2.258;2023-05-15T07:58:14;0.40;;;0.40;;
41057;SDS011;66768;48.884;2.258;2023-05-15T08:00:41;0.30;;;0.30;;
41057;SDS011;66768;48.884;2.258;2023-05-15T08:03:09;0.30;;;0.30;;
41057;SDS011;66768;48.884;2.258;2023-05-15T08:05:36;0.28;;;0.28;;
41057;SDS011;66768;48.884;2.258;2023-05-15T08:08:03;0.40;;;0.40;;
41057;SDS011;66768;48.884;2.258;2023-05-15T08:10:30;0.30;;;0.30;;
41057;SDS011;66768;48.884;2.258;2023-05-15T08:12:56;0.30;;;0.30;;
41057;SDS011;66768;48.884;2.258;2023-05-15T08:15:26;0.35;;;0.35;;
41057;SDS011;66768;48.884;2.258;2023-05-15T08:17:53;0.30;;;0.30;;
41057;SDS011;66768;48.884;2.258;2023-05-15T08:20:20;0.30;;;0.30;;
41057;SDS011;66768;48.884;2.258;2023-05-15T08:22:47;0.38;;;0.38;;
41057;SDS011;66768;48.884;2.258;2023-05-15T08:25:14;0.30;;;0.30;;
41057;SDS011;66768;48.884;2.258;2023-05-15T08:27:41;0.32;;;0.32;;
41057;SDS011;66768;48.884;2.258;2023-05-15T08:30:08;0.40;;;0.40;;
41057;SDS011;66768;48.884;2.258;2023-05-15T08:32:37;0.30;;;0.30;;
41057;SDS011;66768;48.884;2.258;2023-05-15T08:35:04;0.40;;;0.40;;
41057;SDS011;66768;48.884;2.258;2023-05-15T08:37:32;0.30;;;0.30;;
41057;SDS011;66768;48.884;2.258;2023-05-15T08:39:58;0.30;;;0.30;;
41057;SDS011;66768;48.884;2.258;2023-05-15T08:42:27;0.30;;;0.30;;
41057;SDS011;66768;48.884;2.258;2023-05-15T08:44:57;0.30;;;0.30;;
41057;SDS011;66768;48.884;2.258;2023-05-15T08:47:25;0.30;;;0.30;;
41057;SDS011;66768;48.884;2.258;2023-05-15T08:49:57;0.38;;;0.38;;
41057;SDS011;66768;48.884;2.258;2023-05-15T08:52:30;0.20;;;0.20;;
41057;SDS011;66768;48.884;2.258;2023-05-15T08:54:58;0.30;;;0.30;;
41057;SDS011;66768;48.884;2.258;2023-05-15T08:57:25;0.40;;;0.40;;
41057;SDS011;66768;48.884;2.258;2023-05-15T08:59:52;0.30;;;0.30;;
41057;SDS011;66768;48.884;2.258;2023-05-15T09:02:20;0.40;;;0.40;;
41057;SDS011;66768;48.884;2.258;2023-05-15T09:04:49;0.30;;;0.30;;
41057;SDS011;66768;48.884;2.258;2023-05-15T09:07:18;0.30;;;0.30;;
41057;SDS011;66768;48.884;2.258;2023-05-15T09:09:45;0.30;;;0.30;;
41057;SDS011;66768;48.884;2.258;2023-05-15T09:12:13;0.30;;;0.30;;
41057;SDS011;66768;48.884;2.258;2023-05-15T09:14:41;0.40;;;0.40;;
41057;SDS011;66768;48.884;2.258;2023-05-15T09:17:08;0.28;;;0.28;;
41057;SDS011;66768;48.884;2.258;2023-05-15T09:19:35;0.30;;;0.30;;
41057;SDS011;66768;48.884;2.258;2023-05-15T09:22:13;0.25;;;0.25;;
41057;SDS011;66768;48.884;2.258;2023-05-15T09:24:43;0.20;;;0.20;;
41057;SDS011;66768;48.884;2.258;2023-05-15T09:27:12;0.30;;;0.30;;
41057;SDS011;66768;48.884;2.258;2023-05-15T09:29:39;0.30;;;0.30;;
41057;SDS011;66768;48.884;2.258;2023-05-15T09:32:07;0.28;;;0.28;;
41057;SDS011;66768;48.884;2.258;2023-05-15T09:34:36;0.20;;;0.20;;
41057;SDS011;66768;48.884;2.258;2023-05-15T09:37:04;0.30;;;0.30;;
41057;SDS011;66768;48.884;2.258;2023-05-15T09:39:32;0.30;;;0.30;;
41057;SDS011;66768;48.884;2.258;2023-05-15T09:42:08;0.20;;;0.20;;
41057;SDS011;66768;48.884;2.258;2023-05-15T09:47:06;0.30;;;0.30;;
41057;SDS011;66768;48.884;2.258;2023-05-15T09:49:34;0.30;;;0.30;;
41057;SDS011;66768;48.884;2.258;2023-05-15T09:52:01;0.20;;;0.20;;
41057;SDS011;66768;48.884;2.258;2023-05-15T09:54:28;0.20;;;0.20;;
41057;SDS011;66768;48.884;2.258;2023-05-15T09:56:57;0.20;;;0.20;;
41057;SDS011;66768;48.884;2.258;2023-05-15T09:59:34;0.20;;;0.20;;
41057;SDS011;66768;48.884;2.258;2023-05-15T10:02:01;0.30;;;0.30;;
41057;SDS011;66768;48.884;2.258;2023-05-15T10:04:33;0.20;;;0.20;;
41057;SDS011;66768;48.884;2.258;2023-05-15T10:07:00;0.22;;;0.22;;
41057;SDS011;66768;48.884;2.258;2023-05-15T10:09:28;0.30;;;0.30;;
41057;SDS011;66768;48.884;2.258;2023-05-15T10:11:56;0.20;;;0.20;;
41057;SDS011;66768;48.884;2.258;2023-05-15T10:14:25;0.30;;;0.30;;
41057;SDS011;66768;48.884;2.258;2023-05-15T10:16:52;0.20;;;0.20;;
41057;SDS011;66768;48.884;2.258;2023-05-15T10:19:21;0.20;;;0.20;;
41057;SDS011;66768;48.884;2.258;2023-05-15T10:21:50;0.30;;;0.30;;
41057;SDS011;66768;48.884;2.258;2023-05-15T10:24:21;0.20;;;0.20;;
41057;SDS011;66768;48.884;2.258;2023-05-15T10:26:50;0.28;;;0.28;;
41057;SDS011;66768;48.884;2.258;2023-05-15T10:29:20;0.20;;;0.20;;
41057;SDS011;66768;48.884;2.258;2023-05-15T10:31:51;0.30;;;0.30;;
41057;SDS011;66768;48.884;2.258;2023-05-15T10:34:18;0.20;;;0.20;;
41057;SDS011;66768;48.884;2.258;2023-05-15T10:36:46;0.30;;;0.30;;
41057;SDS011;66768;48.884;2.258;2023-05-15T10:39:15;0.30;;;0.30;;
41057;SDS011;66768;48.884;2.258;2023-05-15T10:41:44;0.20;;;0.20;;
41057;SDS011;66768;48.884;2.258;2023-05-15T10:44:11;0.22;;;0.22;;
41057;SDS011;66768;48.884;2.258;2023-05-15T10:46:40;0.30;;;0.30;;
41057;SDS011;66768;48.884;2.258;2023-05-15T10:49:09;0.30;;;0.30;;
41057;SDS011;66768;48.884;2.258;2023-05-15T10:51:36;0.20;;;0.20;;
41057;SDS011;66768;48.884;2.258;2023-05-15T10:54:04;0.20;;;0.20;;
41057;SDS011;66768;48.884;2.258;2023-05-15T10:56:36;0.20;;;0.20;;
41057;SDS011;66768;48.884;2.258;2023-05-15T10:59:04;0.20;;;0.20;;
41057;SDS011;66768;48.884;2.258;2023-05-15T11:01:32;0.30;;;0.30;;
41057;SDS011;66768;48.884;2.258;2023-05-15T11:04:04;0.30;;;0.30;;
41057;SDS011;66768;48.884;2.258;2023-05-15T11:06:34;0.30;;;0.30;;
41057;SDS011;66768;48.884;2.258;2023-05-15T11:11:59;0.20;;;0.20;;
41057;SDS011;66768;48.884;2.258;2023-05-15T11:14:27;0.30;;;0.30;;
41057;SDS011;66768;48.884;2.258;2023-05-15T11:16:55;0.30;;;0.30;;
41057;SDS011;66768;48.884;2.258;2023-05-15T11:19:24;0.28;;;0.28;;
41057;SDS011;66768;48.884;2.258;2023-05-15T11:21:59;0.20;;;0.20;;
41057;SDS011;66768;48.884;2.258;2023-05-15T11:24:27;0.20;;;0.20;;
41057;SDS011;66768;48.884;2.258;2023-05-15T11:26:58;0.20;;;0.20;;
41057;SDS011;66768;48.884;2.258;2023-05-15T11:29:25;0.20;;;0.20;;
41057;SDS011;66768;48.884;2.258;2023-05-15T11:31:52;0.22;;;0.22;;
41057;SDS011;66768;48.884;2.258;2023-05-15T11:34:28;0.20;;;0.20;;
41057;SDS011;66768;48.884;2.258;2023-05-15T11:36:56;0.20;;;0.20;;
41057;SDS011;66768;48.884;2.258;2023-05-15T11:39:25;0.20;;;0.20;;
41057;SDS011;66768;48.884;2.258;2023-05-15T11:41:52;0.20;;;0.20;;
41057;SDS011;66768;48.884;2.258;2023-05-15T11:44:20;0.20;;;0.20;;
41057;SDS011;66768;48.884;2.258;2023-05-15T11:46:48;0.20;;;0.20;;
41057;SDS011;66768;48.884;2.258;2023-05-15T11:49:17;0.20;;;0.20;;
41057;SDS011;66768;48.884;2.258;2023-05-15T11:51:46;0.30;;;0.30;;
41057;SDS011;66768;48.884;2.258;2023-05-15T11:54:15;0.20;;;0.20;;
41057;SDS011;66768;48.884;2.258;2023-05-15T11:56:43;0.30;;;0.30;;
41057;SDS011;66768;48.884;2.258;2023-05-15T11:59:11;0.20;;;0.20;;
41057;SDS011;66768;48.884;2.258;2023-05-15T12:01:39;0.20;;;0.20;;
41057;SDS011;66768;48.884;2.258;2023-05-15T12:04:11;0.30;;;0.30;;
41057;SDS011;66768;48.884;2.258;2023-05-15T12:06:39;0.20;;;0.20;;
41057;SDS011;66768;48.884;2.258;2023-05-15T12:09:11;0.20;;;0.20;;
41057;SDS011;66768;48.884;2.258;2023-05-15T12:11:40;0.20;;;0.20;;
41057;SDS011;66768;48.884;2.258;2023-05-15T12:14:12;0.28;;;0.28;;
41057;SDS011;66768;48.884;2.258;2023-05-15T12:16:39;0.20;;;0.20;;
41057;SDS011;66768;48.884;2.258;2023-05-15T12:19:06;0.20;;;0.20;;
41057;SDS011;66768;48.884;2.258;2023-05-15T12:21:34;0.20;;;0.20;;
41057;SDS011;66768;48.884;2.258;2023-05-15T12:24:09;0.20;;;0.20;;
41057;SDS011;66768;48.884;2.258;2023-05-15T12:26:37;0.30;;;0.30;;
41057;SDS011;66768;48.884;2.258;2023-05-15T12:29:06;0.30;;;0.30;;
41057;SDS011;66768;48.884;2.258;2023-05-15T12:31:33;0.20;;;0.20;;
41057;SDS011;66768;48.884;2.258;2023-05-15T12:34:01;0.25;;;0.25;;
41057;SDS011;66768;48.884;2.258;2023-05-15T12:36:28;0.30;;;0.30;;
41057;SDS011;66768;48.884;2.258;2023-05-15T12:38:55;0.20;;;0.20;;
41057;SDS011;66768;48.884;2.258;2023-05-15T12:41:25;0.20;;;0.20;;
41057;SDS011;66768;48.884;2.258;2023-05-15T12:43:53;0.20;;;0.20;;
41057;SDS011;66768;48.884;2.258;2023-05-15T12:46:22;0.20;;;0.20;;
41057;SDS011;66768;48.884;2.258;2023-05-15T12:48:50;0.30;;;0.30;;
41057;SDS011;66768;48.884;2.258;2023-05-15T12:51:17;0.30;;;0.30;;
41057;SDS011;66768;48.884;2.258;2023-05-15T12:53:44;0.20;;;0.20;;
41057;SDS011;66768;48.884;2.258;2023-05-15T12:56:14;0.30;;;0.30;;
41057;SDS011;66768;48.884;2.258;2023-05-15T12:58:41;0.30;;;0.30;;
41057;SDS011;66768;48.884;2.258;2023-05-15T13:01:08;0.20;;;0.20;;
41057;SDS011;66768;48.884;2.258;2023-05-15T13:03:36;0.20;;;0.20;;
41057;SDS011;66768;48.884;2.258;2023-05-15T13:06:04;0.20;;;0.20;;
41057;SDS011;66768;48.884;2.258;2023-05-15T13:08:32;0.30;;;0.30;;
41057;SDS011;66768;48.884;2.258;2023-05-15T13:11:04;0.20;;;0.20;;
41057;SDS011;66768;48.884;2.258;2023-05-15T13:13:40;0.20;;;0.20;;
41057;SDS011;66768;48.884;2.258;2023-05-15T13:16:16;0.20;;;0.20;;
41057;SDS011;66768;48.884;2.258;2023-05-15T13:18:48;0.20;;;0.20;;
41057;SDS011;66768;48.884;2.258;2023-05-15T13:21:15;0.20;;;0.20;;
41057;SDS011;66768;48.884;2.258;2023-05-15T13:23:42;0.20;;;0.20;;
41057;SDS011;66768;48.884;2.258;2023-05-15T13:26:09;0.20;;;0.20;;
41057;SDS011;66768;48.884;2.258;2023-05-15T13:28:36;0.20;;;0.20;;
41057;SDS011;66768;48.884;2.258;2023-05-15T13:31:03;0.20;;;0.20;;
41057;SDS011;66768;48.884;2.258;2023-05-15T13:33:30;0.20;;;0.20;;
41057;SDS011;66768;48.884;2.258;2023-05-15T13:35:59;0.30;;;0.30;;
41057;SDS011;66768;48.884;2.258;2023-05-15T13:38:26;0.28;;;0.28;;
41057;SDS011;66768;48.884;2.258;2023-05-15T13:40:53;0.30;;;0.30;;
41057;SDS011;66768;48.884;2.258;2023-05-15T13:43:19;0.20;;;0.20;;
41057;SDS011;66768;48.884;2.258;2023-05-15T13:45:46;0.20;;;0.20;;
41057;SDS011;66768;48.884;2.258;2023-05-15T13:48:13;0.20;;;0.20;;
41057;SDS011;66768;48.884;2.258;2023-05-15T13:50:40;0.20;;;0.20;;
41057;SDS011;66768;48.884;2.258;2023-05-15T13:53:10;0.20;;;0.20;;
41057;SDS011;66768;48.884;2.258;2023-05-15T13:55:41;0.20;;;0.20;;
41057;SDS011;66768;48.884;2.258;2023-05-15T13:58:09;0.20;;;0.20;;
41057;SDS011;66768;48.884;2.258;2023-05-15T14:00:36;0.20;;;0.20;;
41057;SDS011;66768;48.884;2.258;2023-05-15T14:03:03;0.20;;;0.20;;
41057;SDS011;66768;48.884;2.258;2023-05-15T14:05:30;0.20;;;0.20;;
41057;SDS011;66768;48.884;2.258;2023-05-15T14:07:58;0.22;;;0.22;;
41057;SDS011;66768;48.884;2.258;2023-05-15T14:10:26;0.20;;;0.20;;
41057;SDS011;66768;48.884;2.258;2023-05-15T14:12:53;0.28;;;0.28;;
41057;SDS011;66768;48.884;2.258;2023-05-15T14:15:20;0.25;;;0.25;;
41057;SDS011;66768;48.884;2.258;2023-05-15T14:17:47;0.20;;;0.20;;
41057;SDS011;66768;48.884;2.258;2023-05-15T14:20:14;0.30;;;0.30;;
41057;SDS011;66768;48.884;2.258;2023-05-15T14:22:41;0.25;;;0.25;;
41057;SDS011;66768;48.884;2.258;2023-05-15T14:25:08;0.20;;;0.20;;
41057;SDS011;66768;48.884;2.258;2023-05-15T14:27:37;0.20;;;0.20;;
41057;SDS011;66768;48.884;2.258;2023-05-15T14:30:04;0.20;;;0.20;;
41057;SDS011;66768;48.884;2.258;2023-05-15T14:32:32;0.30;;;0.30;;
41057;SDS011;66768;48.884;2.258;2023-05-15T14:34:59;0.20;;;0.20;;
41057;SDS011;66768;48.884;2.258;2023-05-15T14:37:25;0.30;;;0.30;;
41057;SDS011;66768;48.884;2.258;2023-05-15T14:39:52;0.20;;;0.20;;
41057;SDS011;66768;48.884;2.258;2023-05-15T14:42:19;0.22;;;0.22;;
41057;SDS011;66768;48.884;2.258;2023-05-15T14:44:48;0.28;;;0.28;;
41057;SDS011;66768;48.884;2.258;2023-05-15T14:47:14;0.20;;;0.20;;
41057;SDS011;66768;48.884;2.258;2023-05-15T14:49:41;0.20;;;0.20;;
41057;SDS011;66768;48.884;2.258;2023-05-15T14:52:08;0.20;;;0.20;;
41057;SDS011;66768;48.884;2.258;2023-05-15T14:54:36;0.20;;;0.20;;
41057;SDS011;66768;48.884;2.258;2023-05-15T14:57:04;0.20;;;0.20;;
41057;SDS011;66768;48.884;2.258;2023-05-15T14:59:31;0.30;;;0.30;;
41057;SDS011;66768;48.884;2.258;2023-05-15T15:01:59;0.25;;;0.25;;
41057;SDS011;66768;48.884;2.258;2023-05-15T15:04:27;0.20;;;0.20;;